Latest Weather Observations for Walgett

IDN60801

Issued at 1:03 am EST Saturday 1 October 2016 (issued every 30 minutes, with the page automatically refreshed every 10 minutes)

About weather observations | Map of weather stations | Latest weather observations for NSW | Other Formats
Station Details ID: 052088 Name: WALGETT AIRPORT AWS Lat: -30.04 Lon: 148.12 Height: 133.0 m
Data from the previous 72 hours. | See also: Recent months at Walgett
Date/Time
EST
Temp
°C
App
Temp
°C
Dew
Point
°C
Rel
Hum
%
Delta-T
°C
Wind Press
QNH
hPa
Press
MSL
hPa
Rain since
9am
mm
Dir  Spd
km/h
Gust
km/h
Spd
kts
Gust
kts
01/01:00am 8.8 5.4 4.2 73 2.0 NW 11 15 6 8 1010.2 1009.9 0.0
01/12:30am 9.2 5.5 4.4 72 2.1 NNW 13 17 7 9 1010.2 1009.9 0.0
01/12:00am 9.0 5.7 4.4 73 2.0 NNW 11 15 6 8 1010.2 1009.9 0.0
 
Date/Time
EST
Temp
°C
App
Temp
°C
Dew
Point
°C
Rel
Hum
%
Delta-T
°C
Wind Press
QNH
hPa
Press
MSL
hPa
Rain since
9am
mm
Dir  Spd
km/h
Gust
km/h
Spd
kts
Gust
kts
30/11:30pm 9.5 6.2 4.5 71 2.2 NNW 11 15 6 8 1010.0 1009.7 0.0
30/11:00pm 9.9 6.6 4.7 70 2.3 NNW 11 13 6 7 1010.0 1009.7 0.0
30/10:30pm 10.1 6.9 4.9 70 2.4 NNW 11 15 6 8 1010.1 1009.8 0.0
30/10:00pm 9.9 7.0 4.5 69 2.4 NW 9 11 5 6 1010.1 1009.8 0.0
30/09:30pm 10.5 7.2 4.6 67 2.7 NNW 11 13 6 7 1010.0 1009.7 0.0
30/09:00pm 10.5 7.2 4.4 66 2.8 NW 11 11 6 6 1009.9 1009.6 0.0
30/08:30pm 10.8 7.9 4.5 65 2.9 WNW 9 13 5 7 1009.7 1009.4 0.0
30/08:00pm 11.2 8.3 4.7 64 3.0 WNW 9 11 5 6 1009.2 1009.0 0.0
30/07:30pm 11.9 8.6 4.6 61 3.3 WNW 11 13 6 7 1008.8 1008.6 0.0
30/07:00pm 12.8 9.5 4.8 58 3.7 WNW 11 13 6 7 1008.4 1008.2 0.0
30/06:30pm 14.2 10.1 4.5 52 4.5 WNW 15 19 8 10 1008.1 1007.9 0.0
30/06:00pm 15.6 10.7 4.3 47 5.3 WNW 19 28 10 15 1007.5 1007.3 0.0
30/05:30pm 17.0 11.2 4.3 43 6.0 W 24 32 13 17 1007.1 1006.9 0.0
30/05:00pm 17.8 12.1 4.7 42 6.3 W 24 41 13 22 1006.8 1006.6 0.0
30/04:30pm 18.3 12.2 4.8 41 6.5 W 26 39 14 21 1006.4 1006.2 0.0
30/04:00pm 17.4 10.3 3.3 39 6.6 WNW 30 44 16 24 1006.2 1006.0 0.0
30/03:30pm 18.3 11.0 4.5 40 6.6 WNW 32 41 17 22 1006.1 1005.9 0.0
30/03:00pm 17.3 9.8 3.2 39 6.6 WNW 32 48 17 26 1005.9 1005.7 0.0
30/02:30pm 18.3 10.9 4.1 39 6.8 WNW 32 52 17 28 1005.8 1005.6 0.0
30/02:23pm 17.9 10.4 3.4 38 6.8 WNW 32 52 17 28 1005.8 1005.6 0.0
30/02:00pm 18.9 11.6 4.7 39 6.9 WNW 32 46 17 25 1005.9 1005.7 0.0
30/01:30pm 17.7 10.2 3.6 39 6.6 WNW 32 50 17 27 1005.8 1005.6 0.0
30/01:29pm 17.7 10.2 3.2 38 6.8 WNW 32 50 17 27 1005.8 1005.6 0.0
30/01:00pm 17.8 10.0 2.9 37 6.9 WNW 33 48 18 26 1005.7 1005.5 0.0
30/12:37pm 18.3 11.6 3.8 38 6.9 NW 28 46 15 25 1005.6 1005.4 0.0
30/12:30pm 18.0 10.5 3.5 38 6.8 NW 32 46 17 25 1005.7 1005.5 0.0
30/12:07pm 17.9 11.1 3.0 37 6.9 NW 28 46 15 25 1005.7 1005.5 0.0
30/12:00pm 17.7 10.5 3.2 38 6.8 WNW 30 46 16 25 1005.7 1005.5 0.0
30/11:43am 18.1 10.6 3.6 38 6.8 WNW 32 50 17 27 1005.9 1005.7 0.0
30/11:30am 17.5 9.9 3.0 38 6.7 WNW 32 43 17 23 1006.0 1005.8 0.0
30/11:12am 17.9 11.4 4.5 41 6.4 WNW 28 46 15 25 1006.1 1005.9 0.0
30/11:00am 17.6 10.0 3.9 40 6.5 NW 33 44 18 24 1006.2 1006.0 0.0
30/10:30am 16.4 8.7 2.4 39 6.3 WNW 32 43 17 23 1006.2 1006.0 0.0
30/10:03am 15.5 7.4 3.0 43 5.7 WNW 35 54 19 29 1006.3 1006.1 0.0
30/10:00am 15.4 6.8 2.6 42 5.8 WNW 37 54 20 29 1006.3 1006.1 0.0
30/09:37am 15.9 8.8 3.7 44 5.7 NW 30 48 16 26 1006.0 1005.8 0.0
30/09:30am 15.2 6.6 2.7 43 5.6 WNW 37 52 20 28 1006.0 1005.8 0.0
30/09:03am 14.5 6.2 2.4 44 5.4 WNW 35 54 19 29 1005.9 1005.7 0.0
30/09:00am 14.4 6.5 2.3 44 5.4 WNW 33 48 18 26 1006.0 1005.8 0.0
30/08:30am 14.0 6.8 3.2 48 4.9 NW 30 43 16 23 1005.8 1005.6 0.0
30/08:00am 13.2 7.3 3.8 53 4.3 NW 24 37 13 20 1005.7 1005.5 0.0
30/07:30am 11.3 6.0 3.1 57 3.6 NNW 20 30 11 16 1005.4 1005.2 0.0
30/07:00am 10.2 4.4 2.3 58 3.4 NNW 22 30 12 16 1005.1 1004.9 0.0
30/06:30am 9.5 4.0 1.9 59 3.2 NNW 20 28 11 15 1004.8 1004.6 0.0
30/06:00am 8.9 3.6 1.8 61 3.0 NNW 19 28 10 15 1004.7 1004.5 0.0
30/05:30am 8.7 3.2 1.8 62 2.9 NNW 20 28 11 15 1004.6 1004.4 0.0
30/05:00am 8.6 3.3 2.0 63 2.8 NNW 19 26 10 14 1004.7 1004.5 0.0
30/04:30am 8.4 3.5 1.8 63 2.7 NNW 17 22 9 12 1004.6 1004.4 0.0
30/04:00am 8.4 3.5 1.8 63 2.8 NNW 17 24 9 13 1004.5 1004.3 0.0
30/03:30am 8.6 3.7 1.7 62 2.9 NNW 17 22 9 12 1004.4 1004.2 0.0
30/03:00am 9.1 4.2 1.8 60 3.1 NNW 17 22 9 12 1004.5 1004.3 0.0
30/02:30am 9.1 3.7 1.5 59 3.2 NNW 19 24 10 13 1004.7 1004.5 0.0
30/02:00am 9.3 4.0 1.7 59 3.2 NNW 19 26 10 14 1005.1 1004.9 0.0
30/01:30am 9.3 4.4 1.7 59 3.2 NNW 17 20 9 11 1005.3 1005.1 0.0
30/01:00am 8.8 4.6 1.7 61 3.0 NNW 13 19 7 10 1005.6 1005.4 0.0
30/12:30am 8.8 4.6 1.7 61 3.0 NNW 13 19 7 10 1005.6 1005.4 0.0
30/12:00am 9.1 4.9 1.5 59 3.2 NNW 13 19 7 10 1005.7 1005.5 0.0
 
Date/Time
EST
Temp
°C
App
Temp
°C
Dew
Point
°C
Rel
Hum
%
Delta-T
°C
Wind Press
QNH
hPa
Press
MSL
hPa
Rain since
9am
mm
Dir  Spd
km/h
Gust
km/h
Spd
kts
Gust
kts
29/11:30pm 8.7 4.8 1.1 59 3.1 NNW 11 13 6 7 1005.7 1005.5 0.0
29/11:00pm 9.4 5.1 1.1 56 3.4 NW 13 15 7 8 1005.8 1005.6 0.0
29/10:30pm 10.6 5.9 0.9 51 4.0 NW 15 19 8 10 1005.7 1005.5 0.0
29/10:00pm 11.7 6.6 0.8 47 4.6 WNW 17 24 9 13 1005.7 1005.5 0.0
29/09:30pm 11.9 6.8 1.0 47 4.6 WNW 17 24 9 13 1005.6 1005.4 0.0
29/09:00pm 10.8 6.8 0.5 49 4.3 NW 11 15 6 8 1005.3 1005.1 0.0
29/08:30pm 12.6 7.4 0.4 43 5.1 WNW 17 20 9 11 1005.0 1004.8 0.0
29/08:00pm 12.9 7.7 0.3 42 5.3 WNW 17 22 9 12 1004.5 1004.3 0.0
29/07:30pm 12.8 8.0 0.2 42 5.3 WNW 15 20 8 11 1004.0 1003.7 0.0
29/07:00pm 13.3 8.8 0.0 40 5.6 WNW 13 17 7 9 1003.5 1003.2 0.0
29/06:30pm 14.3 9.4 -0.5 36 6.2 W 15 20 8 11 1003.1 1002.8 0.0
29/06:00pm 16.3 9.5 -2.2 28 7.6 WNW 24 41 13 22 1002.6 1002.3 0.0
29/05:30pm 17.6 10.8 -1.6 27 8.1 WNW 24 43 13 23 1002.1 1001.8 0.0
29/05:00pm 18.6 9.3 -2.3 24 8.8 WNW 37 50 20 27 1001.3 1001.1 0.0
29/04:30pm 19.3 10.4 -1.7 24 9.0 W 35 54 19 29 1000.8 1000.6 0.0
29/04:00pm 20.1 11.0 -0.5 25 9.1 W 37 56 20 30 1000.4 1000.2 0.0
29/03:30pm 20.6 10.5 0.4 26 9.1 WNW 43 65 23 35 1000.0 999.8 0.0
29/03:00pm 21.3 11.4 1.6 27 9.2 WNW 43 69 23 37 999.9 999.7 0.0
29/02:30pm 21.3 11.6 2.6 29 8.8 WNW 43 65 23 35 999.8 999.6 0.0
29/02:00pm 21.9 13.4 5.3 34 8.4 NW 39 63 21 34 999.9 999.7 0.0
29/01:40pm 21.6 16.0 8.8 44 6.8 NW 28 46 15 25 1000.2 1000.0 0.0
29/01:30pm 20.9 14.0 6.4 39 7.4 NW 32 43 17 23 1000.4 1000.2 0.0
29/01:00pm 21.1 15.6 9.0 46 6.5 WNW 28 43 15 23 1001.0 1000.8 0.0
29/12:49pm 20.5 14.7 7.8 44 6.6 NW 28 46 15 25 1001.3 1001.1 0.0
29/12:30pm 19.4 13.0 6.8 44 6.4 NW 30 43 16 23 1001.7 1001.4 0.0
29/12:00pm 19.2 14.2 8.2 49 5.7 NW 24 35 13 19 1001.9 1001.6 0.0
29/11:30am 17.7 13.5 8.3 54 4.8 NW 20 28 11 15 1002.2 1001.9 0.0
29/11:00am 16.0 12.2 7.5 57 4.3 NW 17 24 9 13 1002.8 1002.5 0.0
29/10:30am 16.3 13.4 8.0 58 4.2 WNW 13 20 7 11 1003.0 1002.7 0.0
29/10:00am 15.9 13.1 8.6 62 3.8 WNW 13 19 7 10 1003.2 1002.9 0.0
29/09:30am 15.3 12.1 10.1 71 2.7 WSW 17 24 9 13 1003.4 1003.1 0.0
29/09:00am 12.8 7.7 9.1 78 1.9 WSW 26 41 14 22 1003.6 1003.3 0.0
29/08:43am 15.7 10.7 13.9 89 1.0 WNW 33 61 18 33 1003.1 1002.8 0.0
29/08:38am 16.1 11.9 14.6 91 0.9 WNW 30 46 16 25 1002.8 1002.5 0.0
29/08:30am 16.1 11.5 14.6 91 0.9 WNW 32 46 17 25 1002.5 1002.2 0.0
29/08:21am 16.4 12.4 14.1 86 1.3 WNW 28 52 15 28 1002.6 1002.3 0.0
29/08:19am 17.0 13.9 14.5 85 1.4 NW 24 52 13 28 1002.6 1002.3 0.0
29/08:00am 17.9 15.1 14.2 79 2.1 NNW 22 35 12 19 1001.7 1001.4 0.0
29/07:30am 17.7 15.0 13.4 76 2.4 N 20 30 11 16 1001.1 1000.9 0.0
29/07:00am 17.8 15.0 13.1 74 2.7 N 20 32 11 17 1001.1 1000.9 0.0
29/06:30am 17.7 14.8 12.8 73 2.8 N 20 28 11 15 1001.0 1000.8 0.0
29/06:00am 16.9 14.9 12.8 77 2.3 N 15 22 8 12 1000.8 1000.6 0.0
29/05:30am 15.9 13.6 13.0 83 1.6 NNE 17 28 9 15 1000.6 1000.4 0.0
29/05:00am 16.0 12.3 12.7 81 1.8 NNE 24 32 13 17 1000.0 999.8 0.0
29/04:30am 16.6 12.7 12.2 75 2.4 NNE 24 33 13 18 1000.4 1000.2 0.0
29/04:00am 17.7 13.9 11.3 66 3.5 NNE 22 28 12 15 1000.6 1000.4 0.0
29/03:30am 17.8 14.4 11.4 66 3.5 NNE 20 28 11 15 1000.9 1000.7 0.0
29/03:00am 18.4 13.8 11.2 63 4.0 N 26 35 14 19 1001.8 1001.5 0.0
29/02:30am 17.7 14.0 11.5 67 3.4 N 22 33 12 18 1002.8 1002.5 0.0
29/02:00am 20.2 15.0 8.8 48 6.1 NNW 26 39 14 21 1003.4 1003.1 0.0
29/01:30am 20.2 15.3 8.5 47 6.1 N 24 32 13 17 1003.7 1003.4 0.0
29/01:00am 20.0 16.0 9.0 49 5.9 N 20 28 11 15 1004.1 1003.8 0.0
29/12:30am 19.0 14.8 9.8 55 4.9 NNE 22 30 12 16 1004.3 1004.0 0.0
29/12:00am 16.9 14.9 11.4 70 3.0 NNE 13 17 7 9 1005.0 1004.8 0.0
 
Date/Time
EST
Temp
°C
App
Temp
°C
Dew
Point
°C
Rel
Hum
%
Delta-T
°C
Wind Press
QNH
hPa
Press
MSL
hPa
Rain since
9am
mm
Dir  Spd
km/h
Gust
km/h
Spd
kts
Gust
kts
28/11:30pm 16.8 15.2 11.7 72 2.8 NE 11 15 6 8 1005.5 1005.3 0.0
28/11:00pm 16.6 14.1 12.2 75 2.4 NE 17 20 9 11 1005.9 1005.7 0.0
28/10:30pm 16.8 14.5 11.9 73 2.7 NE 15 19 8 10 1006.4 1006.2 0.0
28/10:00pm 16.6 14.4 12.0 74 2.5 NE 15 19 8 10 1006.9 1006.7 0.0
28/09:30pm 16.1 13.8 11.9 76 2.3 NE 15 19 8 10 1007.3 1007.1 0.0
28/09:00pm 15.8 13.8 11.4 75 2.4 NE 13 17 7 9 1007.8 1007.6 0.0
28/08:30pm 16.1 14.0 11.3 73 2.6 NE 13 15 7 8 1008.0 1007.8 0.0
28/08:00pm 15.0 13.7 11.2 78 2.0 NE 9 11 5 6 1008.2 1008.0 0.0
28/07:30pm 15.5 14.1 10.9 74 2.5 NE 9 9 5 5 1008.2 1008.0 0.0
28/07:00pm 16.6 14.8 10.9 69 3.1 NE 11 13 6 7 1008.2 1008.0 0.0
28/06:30pm 16.8 15.3 10.4 66 3.4 NE 9 13 5 7 1008.1 1007.9 0.0
28/06:00pm 18.3 16.7 10.2 59 4.4 ENE 9 13 5 7 1008.2 1008.0 0.0
28/05:30pm 19.8 17.8 10.0 53 5.3 ENE 11 15 6 8 1008.3 1008.1 0.0
28/05:00pm 20.7 18.1 9.3 48 6.1 NE 13 17 7 9 1008.1 1007.9 0.0
28/04:30pm 22.3 19.0 8.1 40 7.5 NE 15 20 8 11 1008.3 1008.1 0.0
28/04:00pm 22.9 19.8 7.4 37 8.1 NNE 13 19 7 10 1008.9 1008.7 0.0
28/03:30pm 23.1 20.2 8.0 38 8.0 NNE 13 19 7 10 1009.2 1009.0 0.0
28/03:00pm 23.6 21.6 8.8 39 8.0 NE 9 19 5 10 1009.2 1009.0 0.0
28/02:30pm 23.3 20.7 7.8 37 8.2 E 11 19 6 10 1010.0 1009.7 0.0
28/02:00pm 22.9 20.0 8.2 39 7.8 ENE 13 20 7 11 1010.5 1010.2 0.0
28/01:30pm 22.5 19.4 7.1 37 8.0 NE 13 19 7 10 1011.2 1011.0 0.0
28/01:00pm 22.1 19.4 7.5 39 7.6 E 11 19 6 10 1012.1 1011.9 0.0
28/12:30pm 21.4 18.3 7.3 40 7.3 ENE 13 19 7 10 1012.8 1012.6 0.0
28/12:00pm 20.8 18.1 7.4 42 6.9 NE 11 17 6 9 1013.3 1013.1 0.0
28/11:30am 20.4 17.9 6.4 40 7.1 E 9 17 5 9 1013.9 1013.7 0.0
28/11:00am 20.1 17.7 6.8 42 6.8 NNE 9 17 5 9 1014.4 1014.2 0.0
28/10:30am 19.5 17.0 6.6 43 6.5 NE 9 19 5 10 1014.9 1014.7 0.0
28/10:00am 18.3 15.6 5.5 43 6.3 NE 9 15 5 8 1015.5 1015.3 0.0
28/09:30am 17.8 14.6 7.0 49 5.4 NE 13 17 7 9 1015.6 1015.4 0.0
28/09:00am 17.0 13.8 6.8 51 5.1 NE 13 17 7 9 1015.8 1015.6 0.0
28/08:30am 15.8 12.6 6.8 55 4.4 E 13 17 7 9 1015.7 1015.5 0.0
28/08:00am 14.6 12.3 7.6 63 3.5 ENE 9 15 5 8 1015.6 1015.4 0.0
28/07:30am 11.9 10.6 9.3 84 1.3 NE 6 9 3 5 1015.3 1015.1 0.0
28/07:00am 7.9 7.4 7.8 99 0.0 CALM 0 0 0 0 1014.8 1014.6 0.0
28/06:30am 5.3 4.2 5.2 99 0.0 CALM 0 0 0 0 1014.5 1014.3 0.0
28/06:00am 3.7 1.8 3.0 95 0.3 SE 2 6 1 3 1014.4 1014.2 0.0
28/05:30am 4.7 3.5 4.4 98 0.1 CALM 0 0 0 0 1014.2 1014.0 0.0
28/05:00am 4.5 2.8 4.2 98 0.1 ESE 2 7 1 4 1014.0 1013.8 0.0
28/04:30am 4.5 1.1 4.1 97 0.2 SSE 11 11 6 6 1013.5 1013.3 0.0
28/04:00am 4.8 2.2 4.4 97 0.2 S 7 9 4 5 1013.5 1013.3 0.0
28/03:56am 4.8 2.2 4.4 97 0.2 S 7 9 4 5 1013.5 1013.3 0.0
28/03:30am 4.7 2.1 4.1 96 0.3 S 7 9 4 5 1013.4 1013.2 0.0
28/03:00am 4.6 1.9 3.7 94 0.4 SSE 7 9 4 5 1013.4 1013.2 0.0
28/02:30am 5.3 2.7 4.4 94 0.4 SSE 7 9 4 5 1013.6 1013.4 0.0
28/02:02am 5.8 3.5 4.8 93 0.4 S 6 6 3 3 1013.9 1013.7 0.0
28/02:00am 6.1 3.9 5.1 93 0.4 S 6 6 3 3 1013.9 1013.7 0.0
28/01:59am 6.2 4.0 5.2 93 0.4 S 6 6 3 3 1013.9 1013.7 0.0
28/01:30am 6.5 4.3 5.5 93 0.4 S 6 7 3 4 1014.1 1013.9 0.0
28/01:23am 6.6 4.3 5.7 94 0.4 S 7 7 4 4 1014.2 1014.0 0.0
28/01:17am 7.0 5.0 6.1 94 0.4 S 6 7 3 4 1014.3 1014.1 0.0

Other Formats:

Comma delimited format used in spreadsheet applications
http://www.bom.gov.au/fwo/IDN60801/IDN60801.95715.axf

JavaScript Object Notation format (JSON) in row-major order
http://www.bom.gov.au/fwo/IDN60801/IDN60801.95715.json